createdAt,value
2022-11-07T00:04:53.288Z,9.07
2022-11-07T00:09:56.950Z,12.38
2022-11-07T00:15:02.347Z,8.27
2022-11-07T00:20:06.742Z,9.38
2022-11-07T00:25:10.677Z,9.65
2022-11-07T00:30:18.008Z,11.15
2022-11-07T00:35:21.604Z,4.38
2022-11-07T00:40:25.150Z,7.75
2022-11-07T00:45:31.461Z,7.03
2022-11-07T00:50:34.996Z,10.13
2022-11-07T00:55:38.721Z,9.10
2022-11-07T01:00:44.904Z,10.50
2022-11-07T01:05:57.399Z,6.65
2022-11-07T01:11:04.158Z,8.40
2022-11-07T01:16:10.371Z,9.93
2022-11-07T01:21:16.624Z,8.68
2022-11-07T01:26:20.460Z,12.82
2022-11-07T01:31:25.667Z,7.15
2022-11-07T01:36:29.324Z,10.10
2022-11-07T01:41:34.784Z,10.85
2022-11-07T01:46:41.795Z,10.83
2022-11-07T01:51:49.926Z,11.10
2022-11-07T01:56:57.345Z,9.88
2022-11-07T02:02:02.728Z,12.68
2022-11-07T02:07:10.122Z,12.57
2022-11-07T02:12:15.148Z,11.32
2022-11-07T02:17:20.656Z,11.85
2022-11-07T02:22:33.147Z,10.13
2022-11-07T02:27:39.921Z,11.68
2022-11-07T02:32:43.582Z,9.80
2022-11-07T02:37:47.270Z,7.80
2022-11-07T02:42:52.974Z,9.73
2022-11-07T02:47:56.540Z,9.00
2022-11-07T02:53:00.088Z,12.23
2022-11-07T02:58:05.484Z,5.40
2022-11-07T03:03:09.042Z,12.87
2022-11-07T03:08:12.605Z,8.38
2022-11-07T03:13:17.832Z,8.65
2022-11-07T03:18:21.461Z,9.17
2022-11-07T03:23:25.137Z,11.85
2022-11-07T03:28:30.410Z,10.88
2022-11-07T03:33:34.003Z,10.53
2022-11-07T03:38:37.616Z,13.55
2022-11-07T03:43:42.791Z,14.65
2022-11-07T03:48:46.634Z,17.73
2022-11-07T03:53:52.984Z,14.02
2022-11-07T03:58:58.198Z,13.75
2022-11-07T04:04:01.761Z,13.87
2022-11-07T04:09:05.435Z,13.48
2022-11-07T04:14:10.710Z,11.77
2022-11-07T04:19:14.237Z,13.97
2022-11-07T04:24:17.761Z,15.27
2022-11-07T04:29:22.944Z,11.10
2022-11-07T04:34:26.503Z,17.37
2022-11-07T04:39:30.108Z,12.32
2022-11-07T04:44:35.754Z,13.98
2022-11-07T04:49:39.349Z,16.92
2022-11-07T04:54:42.978Z,11.43
2022-11-07T04:59:48.225Z,16.90
2022-11-07T05:04:52.148Z,20.17
2022-11-07T05:09:55.805Z,18.13
2022-11-07T05:15:01.020Z,16.77
2022-11-07T05:20:04.880Z,13.50
2022-11-07T05:25:09.709Z,14.90
2022-11-07T05:30:16.401Z,11.27
2022-11-07T05:35:19.980Z,15.27
2022-11-07T05:40:23.580Z,16.30
2022-11-07T05:45:29.252Z,12.60
2022-11-07T05:50:34.309Z,12.80
2022-11-07T05:55:37.884Z,9.55
2022-11-07T06:00:43.133Z,12.57
2022-11-07T06:05:47.053Z,14.23
2022-11-07T06:10:50.594Z,11.77
2022-11-07T06:15:55.756Z,8.23
2022-11-07T06:21:02.431Z,7.38
2022-11-07T06:26:06.188Z,5.45
2022-11-07T06:31:11.909Z,6.78
2022-11-07T06:36:15.424Z,6.50
2022-11-07T06:41:19.067Z,8.93
2022-11-07T06:46:24.237Z,8.27
2022-11-07T06:51:27.790Z,8.45
2022-11-07T06:56:31.378Z,11.00
2022-11-07T07:01:36.697Z,10.60
2022-11-07T07:06:40.468Z,16.40
2022-11-07T07:11:44.052Z,7.22
2022-11-07T07:16:49.776Z,11.13
2022-11-07T07:21:53.324Z,9.70
2022-11-07T07:26:56.852Z,7.82
2022-11-07T07:32:02.951Z,5.35
2022-11-07T07:42:10.078Z,7.30
2022-11-07T07:47:15.660Z,3.88
2022-11-07T07:52:19.168Z,1.55
2022-11-07T07:57:22.685Z,2.47
2022-11-07T08:02:27.948Z,1.85
2022-11-07T08:07:31.637Z,4.00
2022-11-07T08:12:35.213Z,2.40
2022-11-07T08:17:40.635Z,3.47
2022-11-07T08:22:44.292Z,0.93
2022-11-07T08:27:47.826Z,5.63
2022-11-07T08:32:53.033Z,4.28
2022-11-07T08:37:56.699Z,3.35
2022-11-07T08:43:03.102Z,4.32
2022-11-07T08:48:08.456Z,5.63
2022-11-07T08:53:12.412Z,5.33
2022-11-07T08:58:15.969Z,1.98
2022-11-07T09:03:44.171Z,3.63
2022-11-07T09:08:44.721Z,3.80
2022-11-07T09:13:48.646Z,4.13
2022-11-07T09:18:53.972Z,2.90
2022-11-07T09:23:57.533Z,3.60
2022-11-07T09:29:01.419Z,2.97
2022-11-07T09:34:07.658Z,6.18
2022-11-07T09:39:11.174Z,7.15
2022-11-07T09:44:29.713Z,3.50
2022-11-07T09:49:39.606Z,10.73
2022-11-07T09:54:47.243Z,8.52
2022-11-07T09:59:55.073Z,5.82
2022-11-07T10:05:02.922Z,7.30
2022-11-07T10:10:12.217Z,7.20
2022-11-07T10:15:22.349Z,6.28
2022-11-07T10:20:39.702Z,8.25
2022-11-07T10:25:49.916Z,4.95
2022-11-07T10:30:55.026Z,8.82
2022-11-07T10:36:03.839Z,9.18
2022-11-07T10:41:15.521Z,8.15
2022-11-07T10:46:22.621Z,8.65
2022-11-07T10:51:40.977Z,7.38
2022-11-07T10:56:49.596Z,6.72
2022-11-07T11:01:54.632Z,5.88
2022-11-07T11:07:02.169Z,5.72
2022-11-07T11:12:07.702Z,9.07
2022-11-07T11:17:25.448Z,6.47
2022-11-07T11:22:31.066Z,7.07
2022-11-07T11:27:36.596Z,6.87
2022-11-07T11:32:45.936Z,5.80
2022-11-07T11:37:58.863Z,8.10
2022-11-07T11:43:10.032Z,7.43
2022-11-07T11:48:24.580Z,4.20
2022-11-07T11:53:29.940Z,6.60
2022-11-07T11:58:44.452Z,5.87
2022-11-07T12:04:10.144Z,6.60
2022-11-07T12:09:27.826Z,6.15
2022-11-07T12:14:57.661Z,7.10
2022-11-07T12:20:12.014Z,6.10
2022-11-07T12:25:24.804Z,6.35
2022-11-07T12:30:39.478Z,6.63
2022-11-07T12:35:49.536Z,5.07
2022-11-07T12:41:04.372Z,8.55
2022-11-07T12:46:15.211Z,10.52
2022-11-07T12:51:29.320Z,6.05
2022-11-07T12:56:36.764Z,4.53
2022-11-07T13:01:44.741Z,8.25
2022-11-07T13:06:54.117Z,6.05
2022-11-07T13:12:05.010Z,5.88
2022-11-07T13:17:17.574Z,6.85
2022-11-07T13:22:23.741Z,6.88
2022-11-07T13:27:37.918Z,10.90
2022-11-07T13:32:42.195Z,5.07
2022-11-07T13:37:46.118Z,5.13
2022-11-07T13:42:56.942Z,5.63
2022-11-07T13:48:04.082Z,3.85
2022-11-07T13:53:15.821Z,4.72
2022-11-07T13:58:23.165Z,5.50
2022-11-07T14:03:28.417Z,6.15
2022-11-07T14:08:34.243Z,4.15
2022-11-07T14:13:41.737Z,7.57
2022-11-07T14:18:50.091Z,6.97
2022-11-07T14:23:54.370Z,7.38
2022-11-07T14:28:59.629Z,6.32
2022-11-07T14:34:05.419Z,11.48
2022-11-07T14:39:15.764Z,9.73
2022-11-07T14:44:28.409Z,8.32
2022-11-07T14:49:42.406Z,5.18
2022-11-07T14:54:47.399Z,5.30
2022-11-07T14:59:52.800Z,6.03
2022-11-07T15:05:03.387Z,6.07
2022-11-07T15:10:24.686Z,5.75
2022-11-07T15:15:32.118Z,5.88
2022-11-07T15:20:38.056Z,5.97
2022-11-07T15:25:43.523Z,6.07
2022-11-07T15:30:49.209Z,6.77
2022-11-07T15:35:56.778Z,5.37
2022-11-07T15:41:00.360Z,5.25
2022-11-07T15:46:18.894Z,5.32
2022-11-07T15:51:22.451Z,9.13
2022-11-07T15:56:27.053Z,6.35
2022-11-07T16:01:32.339Z,4.65
2022-11-07T16:06:39.831Z,4.90
2022-11-07T16:11:47.430Z,5.43
2022-11-07T16:16:52.601Z,6.60
2022-11-07T16:21:56.162Z,5.63
2022-11-07T16:26:59.695Z,4.82
2022-11-07T16:32:05.190Z,6.97
2022-11-07T16:37:11.889Z,6.20
2022-11-07T16:42:16.198Z,9.63
2022-11-07T16:47:21.457Z,5.80
2022-11-07T16:52:25.024Z,7.63
2022-11-07T16:57:28.680Z,5.10
2022-11-07T17:02:33.960Z,4.20
2022-11-07T17:07:37.620Z,8.43
2022-11-07T17:12:41.179Z,6.40
2022-11-07T17:17:46.388Z,10.25
2022-11-07T17:22:49.905Z,9.07
2022-11-07T17:27:53.449Z,7.15
2022-11-07T17:32:58.632Z,10.52
2022-11-07T17:38:02.497Z,9.57
2022-11-07T17:43:06.064Z,7.28
2022-11-07T17:48:11.919Z,11.73
2022-11-07T17:53:15.452Z,9.63
2022-11-07T17:58:19.279Z,11.07
2022-11-07T18:03:24.600Z,7.70
2022-11-07T18:08:46.309Z,13.40
2022-11-07T18:13:52.594Z,9.13
2022-11-07T18:18:59.346Z,6.63
2022-11-07T18:24:02.900Z,6.78
2022-11-07T18:29:08.084Z,6.65
2022-11-07T18:34:14.288Z,13.07
2022-11-07T18:39:19.505Z,7.40
2022-11-07T18:44:23.117Z,8.30
2022-11-07T18:49:28.294Z,7.47
2022-11-07T18:54:31.838Z,7.87
2022-11-07T18:59:35.375Z,7.88
2022-11-07T19:04:41.261Z,5.63
2022-11-07T19:09:44.805Z,9.55
2022-11-07T19:14:48.362Z,6.43
2022-11-07T19:19:53.571Z,8.35
2022-11-07T19:24:57.106Z,5.80
2022-11-07T19:30:00.765Z,5.75
2022-11-07T19:35:06.772Z,5.10
2022-11-07T19:45:13.891Z,6.13
2022-11-07T19:50:19.578Z,6.13
2022-11-07T19:55:23.192Z,5.75
2022-11-07T20:00:26.737Z,7.38
2022-11-07T20:05:32.925Z,7.70
2022-11-07T20:10:36.497Z,5.32
2022-11-07T20:15:40.726Z,5.65
2022-11-07T20:20:45.896Z,6.40
2022-11-07T20:25:49.431Z,6.20
2022-11-07T20:30:53.348Z,4.93
2022-11-07T20:36:03.418Z,4.22
2022-11-07T20:41:07.357Z,7.05
2022-11-07T20:46:12.927Z,5.03
2022-11-07T20:51:19.749Z,3.38
2022-11-07T20:56:24.959Z,7.13
2022-11-07T21:01:30.305Z,6.47
2022-11-07T21:06:36.385Z,8.25
2022-11-07T21:16:43.473Z,4.55
2022-11-07T21:21:48.661Z,6.95
2022-11-07T21:26:52.886Z,5.27
2022-11-07T21:31:56.484Z,4.38
2022-11-07T21:37:01.652Z,6.50
2022-11-07T21:42:05.345Z,8.13
2022-11-07T21:47:08.927Z,6.13
2022-11-07T21:52:14.129Z,5.28
2022-11-07T21:57:17.705Z,4.97
2022-11-07T22:02:21.391Z,6.13
2022-11-07T22:07:26.717Z,5.80
2022-11-07T22:12:30.334Z,4.43
2022-11-07T22:17:33.890Z,5.40
2022-11-07T22:22:39.985Z,8.20
2022-11-07T22:27:43.533Z,3.17
2022-11-07T22:32:47.109Z,5.20
2022-11-07T22:37:53.167Z,5.63
2022-11-07T22:47:59.547Z,6.47
2022-11-07T22:53:05.297Z,14.60
2022-11-07T22:58:08.830Z,5.65
2022-11-07T23:03:12.447Z,3.67
2022-11-07T23:08:17.953Z,6.35
2022-11-07T23:13:22.148Z,8.70
2022-11-07T23:18:25.993Z,4.90
2022-11-07T23:23:31.212Z,5.60
2022-11-07T23:28:34.966Z,5.40
2022-11-07T23:33:38.808Z,4.05
2022-11-07T23:38:45.021Z,5.75
2022-11-07T23:43:52.233Z,5.15
2022-11-07T23:48:56.120Z,6.82
2022-11-07T23:54:01.320Z,4.00
2022-11-07T23:59:05.287Z,4.97
